Terminal Aerodrome Forecast
Issued by NWS Spokane, WA

Home | Current Version | Previous Version | Text Only | Print | Product List | Glossary On
Versions: 1 2 3 4 5 6 7 8 9 10 11 12 13 14 15 16 17 18 19 20 21 22
000
FTUS46 KOTX 250539
TAFGEG
TAF
KGEG 250539Z 2506/2606 21012KT P6SM FEW050 SCT150 BKN200
     FM251100 17007KT P6SM FEW060 BKN100 OVC150
     FM251600 21006KT P6SM VCSH SCT040 BKN060 OVC090
     FM260400 19005KT P6SM SCT060 BKN100=

USA.gov is the U.S. government's official web portal to all federal, state and local government web resources and services.